createdAt,value
2022-10-17T11:35:47.934Z,19.76
2022-10-17T11:39:01.498Z,19.82
2022-10-17T11:41:35.697Z,19.78
2022-10-17T11:44:12.767Z,19.88
2022-10-17T11:46:43.075Z,19.86
2022-10-17T11:49:20.432Z,19.79
2022-10-17T11:52:08.234Z,19.85
2022-10-17T11:54:41.799Z,19.93
2022-10-17T11:57:52.986Z,19.87
2022-10-17T12:00:42.716Z,19.92
2022-10-17T12:03:31.069Z,19.97
2022-10-17T12:06:17.697Z,20.05
2022-10-17T12:09:06.792Z,20.00
2022-10-17T12:11:40.028Z,19.95
2022-10-17T12:14:33.115Z,19.92
2022-10-17T12:17:01.690Z,20.02
2022-10-17T12:19:32.063Z,19.99
2022-10-17T12:22:04.099Z,19.99
2022-10-17T12:24:40.012Z,19.93
2022-10-17T12:27:58.206Z,19.97
2022-10-17T12:30:26.125Z,19.97
2022-10-17T12:33:06.183Z,20.01
2022-10-17T12:35:36.506Z,19.94
2022-10-17T12:38:18.613Z,20.00
2022-10-17T12:40:49.936Z,20.07
2022-10-17T12:43:36.342Z,20.15
2022-10-17T12:46:04.896Z,20.19
2022-10-17T12:48:38.118Z,20.27
2022-10-17T12:53:57.075Z,20.32
2022-10-17T12:56:44.794Z,20.31
2022-10-17T12:59:23.526Z,20.26
2022-10-17T13:01:58.326Z,20.26
2022-10-17T13:04:27.888Z,20.24
2022-10-17T13:06:58.680Z,20.22
2022-10-17T13:09:30.181Z,20.20
2022-10-17T13:11:59.850Z,20.20
2022-10-17T13:14:28.081Z,20.24
2022-10-17T13:17:04.888Z,20.23
2022-10-17T13:19:41.539Z,20.22
2022-10-17T13:22:31.771Z,20.17
2022-10-17T13:25:13.774Z,20.13
2022-10-17T13:27:40.434Z,20.11
2022-10-17T13:30:32.666Z,20.06
2022-10-17T13:33:00.891Z,20.01
2022-10-17T13:35:55.425Z,19.99
2022-10-17T13:38:28.035Z,20.00
2022-10-17T13:41:01.632Z,19.97
2022-10-17T13:43:38.404Z,19.92
2022-10-17T13:46:25.460Z,19.90
2022-10-17T13:48:53.536Z,19.88
2022-10-17T13:51:20.454Z,19.87
2022-10-17T13:53:47.140Z,19.86
2022-10-17T13:56:30.123Z,19.83
2022-10-17T13:59:00.861Z,19.81
2022-10-17T14:01:28.931Z,19.78
2022-10-17T14:04:07.779Z,19.77
2022-10-17T14:06:44.038Z,19.75
2022-10-17T14:09:28.392Z,19.74
2022-10-17T14:12:04.089Z,19.65
2022-10-17T14:14:41.671Z,19.59
2022-10-17T14:17:24.854Z,19.55
2022-10-17T14:20:08.004Z,19.47
2022-10-17T14:22:44.576Z,19.39
2022-10-17T14:25:29.241Z,19.35
2022-10-17T14:28:16.494Z,19.26
2022-10-17T14:31:02.696Z,19.12
2022-10-17T14:33:31.475Z,19.07
2022-10-17T14:36:01.688Z,19.01
2022-10-17T14:38:29.266Z,18.97
2022-10-17T14:43:58.825Z,18.84
2022-10-17T14:46:27.485Z,18.78
2022-10-17T14:48:55.379Z,18.72
2022-10-17T14:51:21.992Z,18.61
2022-10-17T14:54:26.804Z,18.51
2022-10-17T14:56:54.333Z,18.38
2022-10-17T14:59:51.461Z,18.29
2022-10-17T15:02:02.580Z,18.19
2022-10-17T15:04:29.237Z,18.10
2022-10-17T15:06:56.011Z,18.00
2022-10-17T15:09:23.367Z,17.90
2022-10-17T15:11:50.354Z,17.79
2022-10-17T15:14:16.915Z,17.67
2022-10-17T15:16:43.668Z,17.59
2022-10-17T15:19:13.064Z,17.51
2022-10-17T15:21:43.395Z,17.38
2022-10-17T15:24:14.370Z,17.25
2022-10-17T15:26:41.463Z,17.13
2022-10-17T15:29:14.123Z,17.02
2022-10-17T15:31:41.129Z,16.89
2022-10-17T15:34:07.859Z,16.75
2022-10-17T15:36:42.061Z,16.61
2022-10-17T15:39:09.782Z,16.48
2022-10-17T15:41:36.405Z,16.35
2022-10-17T15:44:03.256Z,16.20
2022-10-17T15:46:33.518Z,16.08
2022-10-17T15:49:10.978Z,15.94
2022-10-17T15:51:37.873Z,15.81
2022-10-17T15:54:05.827Z,15.69
2022-10-17T15:56:40.703Z,15.55
2022-10-17T15:59:12.887Z,15.41
2022-10-17T16:01:40.182Z,15.25
2022-10-17T16:04:12.195Z,15.12
2022-10-17T16:06:38.974Z,14.99
2022-10-17T16:09:05.847Z,14.85
2022-10-17T16:11:36.062Z,14.70
2022-10-17T16:14:05.754Z,14.56
2022-10-17T16:16:32.943Z,14.42
2022-10-17T16:19:00.801Z,14.30
2022-10-17T16:24:03.726Z,13.99
2022-10-17T16:26:30.573Z,13.80
2022-10-17T16:28:57.653Z,13.68
2022-10-17T16:31:28.747Z,13.54
2022-10-17T16:33:57.661Z,13.41
2022-10-17T16:36:24.698Z,13.30
2022-10-17T16:38:53.518Z,13.14
2022-10-17T16:41:26.322Z,12.99
2022-10-17T16:43:56.023Z,12.89
2022-10-17T16:46:24.742Z,12.82
2022-10-17T16:48:51.349Z,12.75
2022-10-17T16:51:19.605Z,12.69
2022-10-17T16:53:49.642Z,12.61
2022-10-17T16:56:19.968Z,12.52
2022-10-17T16:58:47.032Z,12.42
2022-10-17T17:01:17.287Z,12.31
2022-10-17T17:03:45.689Z,12.22
2022-10-17T17:06:19.235Z,12.13
2022-10-17T17:08:46.769Z,12.08
2022-10-17T17:11:17.146Z,12.03
2022-10-17T17:13:44.211Z,11.96
2022-10-17T17:16:13.829Z,11.89
2022-10-17T17:18:41.496Z,11.86
2022-10-17T17:21:09.904Z,11.83
2022-10-17T17:23:39.497Z,11.80
2022-10-17T17:26:18.014Z,11.75
2022-10-17T17:28:45.091Z,11.73
2022-10-17T17:31:23.693Z,11.70
2022-10-17T17:33:50.927Z,11.66
2022-10-17T17:36:21.326Z,11.61
2022-10-17T17:38:49.733Z,11.53
2022-10-17T17:41:18.373Z,11.41
2022-10-17T17:43:46.770Z,11.30
2022-10-17T17:46:15.966Z,11.26
2022-10-17T17:48:45.936Z,11.20
2022-10-17T17:51:15.545Z,11.15
2022-10-17T17:53:42.684Z,11.16
2022-10-17T17:56:20.102Z,11.13
2022-10-17T17:58:48.207Z,11.01
2022-10-17T18:01:20.889Z,10.97
2022-10-17T18:03:49.417Z,10.89
2022-10-17T18:06:17.073Z,10.85
2022-10-17T18:08:45.757Z,10.82
2022-10-17T18:11:12.419Z,10.77
2022-10-17T18:13:39.165Z,10.75
2022-10-17T18:16:12.851Z,10.72
2022-10-17T18:18:41.414Z,10.72
2022-10-17T18:21:09.431Z,10.66
2022-10-17T18:23:40.495Z,10.54
2022-10-17T18:26:07.505Z,10.45
2022-10-17T18:28:35.991Z,10.41
2022-10-17T18:31:35.049Z,10.38
2022-10-17T18:34:02.827Z,10.33
2022-10-17T18:36:31.257Z,10.30
2022-10-17T18:39:00.476Z,10.29
2022-10-17T18:41:27.551Z,10.32
2022-10-17T18:43:55.420Z,10.32
2022-10-17T18:46:25.047Z,10.33
2022-10-17T18:48:52.072Z,10.33
2022-10-17T18:51:21.086Z,10.29
2022-10-17T18:53:50.284Z,10.24
2022-10-17T18:56:18.049Z,10.23
2022-10-17T18:58:44.685Z,10.18
2022-10-17T19:01:17.104Z,10.14
2022-10-17T19:03:46.333Z,10.13
2022-10-17T19:06:16.105Z,10.11
2022-10-17T19:08:43.730Z,10.08
2022-10-17T19:11:17.054Z,10.05
2022-10-17T19:16:21.894Z,10.04
2022-10-17T19:18:53.657Z,10.03
2022-10-17T19:21:21.957Z,10.02
2022-10-17T19:23:51.833Z,9.98
2022-10-17T19:26:19.677Z,9.95
2022-10-17T19:28:47.252Z,9.92
2022-10-17T19:31:17.923Z,9.90
2022-10-17T19:33:45.343Z,9.86
2022-10-17T19:36:13.208Z,9.82
2022-10-17T19:38:39.835Z,9.74
2022-10-17T19:41:08.666Z,9.73
2022-10-17T19:43:37.016Z,9.72
2022-10-17T19:46:06.230Z,9.71
2022-10-17T19:48:36.110Z,9.70
2022-10-17T19:51:07.905Z,9.69
2022-10-17T19:53:35.098Z,9.69
2022-10-17T19:56:02.448Z,9.67
2022-10-17T19:58:29.071Z,9.65
2022-10-17T20:01:00.438Z,9.63
2022-10-17T20:03:28.142Z,9.61
2022-10-17T20:05:55.239Z,9.60
2022-10-17T20:08:22.308Z,9.59
2022-10-17T20:10:48.948Z,9.57
2022-10-17T20:13:15.601Z,9.57
2022-10-17T20:15:42.268Z,9.54
2022-10-17T20:18:09.197Z,9.53
2022-10-17T20:20:37.147Z,9.50
2022-10-17T20:23:04.384Z,9.48
2022-10-17T20:25:32.781Z,9.45
2022-10-17T20:27:59.787Z,9.44
2022-10-17T20:30:26.549Z,9.39
2022-10-17T20:32:56.589Z,9.38
2022-10-17T20:35:23.448Z,9.38
2022-10-17T20:37:50.182Z,9.33
2022-10-17T20:40:34.162Z,9.30
2022-10-17T20:43:03.584Z,9.26
2022-10-17T20:45:44.165Z,9.23
2022-10-17T20:48:18.537Z,9.21
2022-10-17T20:50:45.112Z,9.18
2022-10-17T20:56:08.461Z,9.16
2022-10-17T20:58:35.176Z,9.15
2022-10-17T21:01:07.213Z,9.17
2022-10-17T21:03:35.870Z,9.16
2022-10-17T21:06:03.029Z,9.14
2022-10-17T21:08:30.013Z,9.13
2022-10-17T21:11:19.897Z,9.08
2022-10-17T21:13:48.132Z,9.06
2022-10-17T21:16:18.816Z,9.00
2022-10-17T21:18:45.940Z,8.91
2022-10-17T21:21:16.954Z,8.88
2022-10-17T21:23:44.986Z,8.85
2022-10-17T21:26:13.258Z,8.76
2022-10-17T21:28:41.574Z,8.68
2022-10-17T21:31:15.180Z,8.66
2022-10-17T21:33:45.071Z,8.62
2022-10-17T21:36:13.224Z,8.62
2022-10-17T21:38:40.287Z,8.61
2022-10-17T21:41:08.780Z,8.61
2022-10-17T21:43:36.757Z,8.60
2022-10-17T21:46:12.510Z,8.56
2022-10-17T21:48:39.617Z,8.53
2022-10-17T21:51:09.008Z,8.53
2022-10-17T21:53:36.970Z,8.52
2022-10-17T21:56:18.270Z,8.52
2022-10-17T21:58:46.726Z,8.53
2022-10-17T22:01:23.316Z,8.51
2022-10-17T22:03:53.265Z,8.47
2022-10-17T22:06:39.212Z,8.44
2022-10-17T22:09:12.696Z,8.41
2022-10-17T22:11:39.814Z,8.37
2022-10-17T22:14:10.754Z,8.32
2022-10-17T22:16:38.330Z,8.25
2022-10-17T22:19:07.163Z,8.24
2022-10-17T22:21:34.907Z,8.21
2022-10-17T22:24:05.132Z,8.19
2022-10-17T22:26:34.067Z,8.17
2022-10-17T22:29:00.991Z,8.16
2022-10-17T22:31:27.968Z,8.10
2022-10-17T22:33:55.161Z,8.01
2022-10-17T22:36:21.980Z,8.01
2022-10-17T22:38:48.656Z,7.96
2022-10-17T22:41:15.332Z,7.90
2022-10-17T22:43:42.014Z,7.90
2022-10-17T22:46:09.855Z,7.86
2022-10-17T22:48:36.466Z,7.86
2022-10-17T22:51:03.538Z,7.85
2022-10-17T22:53:30.245Z,7.84
2022-10-17T22:55:59.180Z,7.86
2022-10-17T22:58:27.315Z,7.84
2022-10-17T23:00:54.932Z,7.82
2022-10-17T23:03:23.111Z,7.80
2022-10-17T23:05:50.279Z,7.75
2022-10-17T23:08:17.796Z,7.74
2022-10-17T23:10:45.558Z,7.70
2022-10-17T23:13:12.922Z,7.69
2022-10-17T23:15:39.961Z,7.67
2022-10-17T23:18:07.245Z,7.67
2022-10-17T23:20:34.271Z,7.65
2022-10-17T23:23:00.805Z,7.61
2022-10-17T23:25:27.664Z,7.56
2022-10-17T23:27:54.966Z,7.55
2022-10-17T23:30:21.542Z,7.54
2022-10-17T23:32:48.094Z,7.56
2022-10-17T23:35:15.054Z,7.57
2022-10-17T23:37:41.955Z,7.58
2022-10-17T23:40:09.472Z,7.58
2022-10-17T23:42:36.178Z,7.58
2022-10-17T23:45:03.460Z,7.59
2022-10-17T23:47:30.617Z,7.59
2022-10-17T23:50:01.952Z,7.56
2022-10-17T23:52:28.868Z,7.54
2022-10-17T23:55:14.272Z,7.51
2022-10-17T23:57:40.843Z,7.46
